Asahimaru No15 — JI3603 — position and weather

sailwx.info

Track history (hours):
 
Tides and Currents Weather Stations Pressure Air Temp Water Temp Dewpoint Dewpoint Depression Visibility Wind Speed Wind Dir Waves Ship Positions

Asahimaru No15

Last reported at 2018-Jun-23 14:23 UTC. Time now 2018-Jun-24 18:50 UTC.
Position N 34°05' E 134°55'.

Length 76 m.

Type: Cargo ship. MMSI: 431300392.

Date/timePositionNaut miles runAvg speedWind from/ knotsBaromVisibWave heightAir tempDewpointWater temp
2018-Jun-23 14:23N 34°05' E 134°55'512.5
2018-Jun-23 14:00N 34°10' E 134°56'713.0
2018-Jun-23 13:30N 34°16' E 134°58'612.6
2018-Jun-23 13:00N 34°22' E 135°01'1212.5
2018-Jun-23 12:02N 34°30' E 135°11'512.3
2018-Jun-23 11:39N 34°33' E 135°16'312.5
2018-Jun-23 11:25N 34°35' E 135°19'6 0.5
2018-Jun-22 22:47N 34°37' E 135°25'5 0.5
2018-Jun-22 14:17N 34°36' E 135°19'413.3
2018-Jun-22 13:57N 34°35' E 135°14'2513.2
2018-Jun-22 12:03N 34°32' E 134°44'  
2018-Jun-16 10:41N 34°36' E 135°05'313.1
2018-Jun-16 10:26N 34°36' E 135°09'612.3
2018-Jun-16 09:57N 34°36' E 135°16'810.9
2018-Jun-16 09:15N 34°37' E 135°25'1 0.1
2018-Jun-15 23:03N 34°37' E 135°25'0 2.3
2018-Jun-15 22:52N 34°37' E 135°25'7 0.7
2018-Jun-15 12:47N 34°36' E 135°17'2710.2
2018-Jun-15 10:09N 34°31' E 134°45'  
Track history (hours):
 
Tides and Currents Weather Stations Pressure Air Temp Water Temp Dewpoint Dewpoint Depression Visibility Wind Speed Wind Dir Waves Ship Positions

Asahimaru No15

Last reported at 2018-Jun-23 14:23 UTC. Time now 2018-Jun-24 18:50 UTC.
Position N 34°05' E 134°55'.

Length 76 m.

Type: Cargo ship. MMSI: 431300392.

Date/timePositionNaut miles runAvg speedWind from/ knotsBaromVisibWave heightAir tempDewpointWater temp
2018-Jun-23 14:23N 34°05' E 134°55'512.5
2018-Jun-23 14:00N 34°10' E 134°56'713.0
2018-Jun-23 13:30N 34°16' E 134°58'612.6
2018-Jun-23 13:00N 34°22' E 135°01'1212.5
2018-Jun-23 12:02N 34°30' E 135°11'512.3
2018-Jun-23 11:39N 34°33' E 135°16'312.5
2018-Jun-23 11:25N 34°35' E 135°19'6 0.5
2018-Jun-22 22:47N 34°37' E 135°25'5 0.5
2018-Jun-22 14:17N 34°36' E 135°19'413.3
2018-Jun-22 13:57N 34°35' E 135°14'2513.2
2018-Jun-22 12:03N 34°32' E 134°44'  
2018-Jun-16 10:41N 34°36' E 135°05'313.1
2018-Jun-16 10:26N 34°36' E 135°09'612.3
2018-Jun-16 09:57N 34°36' E 135°16'810.9
2018-Jun-16 09:15N 34°37' E 135°25'1 0.1
2018-Jun-15 23:03N 34°37' E 135°25'0 2.3
2018-Jun-15 22:52N 34°37' E 135°25'7 0.7
2018-Jun-15 12:47N 34°36' E 135°17'2710.2
2018-Jun-15 10:09N 34°31' E 134°45'  

Dump ship's entire track history